sensor_id;sensor_type;location;lat;lon;timestamp;P1;durP1;ratioP1;P2;durP2;ratioP2
20725;SDS011;10524;48.132;8.518;2023-01-15T00:01:32;1.17;;;0.50;;
20725;SDS011;10524;48.132;8.518;2023-01-15T00:03:59;2.05;;;0.60;;
20725;SDS011;10524;48.132;8.518;2023-01-15T00:06:27;0.50;;;0.50;;
20725;SDS011;10524;48.132;8.518;2023-01-15T00:08:54;1.13;;;0.60;;
20725;SDS011;10524;48.132;8.518;2023-01-15T00:11:20;0.73;;;0.60;;
20725;SDS011;10524;48.132;8.518;2023-01-15T00:13:46;1.40;;;0.65;;
20725;SDS011;10524;48.132;8.518;2023-01-15T00:16:19;1.20;;;0.60;;
20725;SDS011;10524;48.132;8.518;2023-01-15T00:18:56;0.40;;;0.40;;
20725;SDS011;10524;48.132;8.518;2023-01-15T00:21:24;1.88;;;0.50;;
20725;SDS011;10524;48.132;8.518;2023-01-15T00:23:51;0.40;;;0.40;;
20725;SDS011;10524;48.132;8.518;2023-01-15T00:26:36;1.08;;;0.60;;
20725;SDS011;10524;48.132;8.518;2023-01-15T00:29:22;0.50;;;0.50;;
20725;SDS011;10524;48.132;8.518;2023-01-15T00:31:55;1.15;;;0.52;;
20725;SDS011;10524;48.132;8.518;2023-01-15T00:34:23;0.50;;;0.50;;
20725;SDS011;10524;48.132;8.518;2023-01-15T00:36:50;0.50;;;0.50;;
20725;SDS011;10524;48.132;8.518;2023-01-15T00:39:16;0.55;;;0.55;;
20725;SDS011;10524;48.132;8.518;2023-01-15T00:41:42;0.60;;;0.43;;
20725;SDS011;10524;48.132;8.518;2023-01-15T00:44:08;0.90;;;0.63;;
20725;SDS011;10524;48.132;8.518;2023-01-15T00:46:33;1.77;;;0.60;;
20725;SDS011;10524;48.132;8.518;2023-01-15T00:48:59;1.05;;;0.60;;
20725;SDS011;10524;48.132;8.518;2023-01-15T00:51:25;0.50;;;0.50;;
20725;SDS011;10524;48.132;8.518;2023-01-15T00:53:51;0.57;;;0.57;;
20725;SDS011;10524;48.132;8.518;2023-01-15T00:56:16;0.40;;;0.40;;
20725;SDS011;10524;48.132;8.518;2023-01-15T00:58:42;1.02;;;0.63;;
20725;SDS011;10524;48.132;8.518;2023-01-15T01:01:07;0.60;;;0.50;;
20725;SDS011;10524;48.132;8.518;2023-01-15T01:03:33;0.57;;;0.55;;
20725;SDS011;10524;48.132;8.518;2023-01-15T01:06:02;0.60;;;0.60;;
20725;SDS011;10524;48.132;8.518;2023-01-15T01:08:28;0.50;;;0.50;;
20725;SDS011;10524;48.132;8.518;2023-01-15T01:11:07;0.95;;;0.60;;
20725;SDS011;10524;48.132;8.518;2023-01-15T01:13:35;0.50;;;0.50;;
20725;SDS011;10524;48.132;8.518;2023-01-15T01:16:01;0.80;;;0.80;;
20725;SDS011;10524;48.132;8.518;2023-01-15T01:18:28;0.90;;;0.50;;
20725;SDS011;10524;48.132;8.518;2023-01-15T01:20:54;2.05;;;0.60;;
20725;SDS011;10524;48.132;8.518;2023-01-15T01:23:21;0.65;;;0.65;;
20725;SDS011;10524;48.132;8.518;2023-01-15T01:25:47;1.10;;;0.65;;
20725;SDS011;10524;48.132;8.518;2023-01-15T01:28:13;0.65;;;0.57;;
20725;SDS011;10524;48.132;8.518;2023-01-15T01:30:38;0.60;;;0.50;;
20725;SDS011;10524;48.132;8.518;2023-01-15T01:33:05;0.88;;;0.68;;
20725;SDS011;10524;48.132;8.518;2023-01-15T01:35:30;0.43;;;0.43;;
20725;SDS011;10524;48.132;8.518;2023-01-15T01:37:56;0.40;;;0.40;;
20725;SDS011;10524;48.132;8.518;2023-01-15T01:40:22;0.52;;;0.50;;
20725;SDS011;10524;48.132;8.518;2023-01-15T01:42:47;2.17;;;0.50;;
20725;SDS011;10524;48.132;8.518;2023-01-15T01:47:54;0.50;;;0.50;;
20725;SDS011;10524;48.132;8.518;2023-01-15T01:50:23;1.52;;;0.50;;
20725;SDS011;10524;48.132;8.518;2023-01-15T01:52:55;0.43;;;0.43;;
20725;SDS011;10524;48.132;8.518;2023-01-15T01:55:27;0.40;;;0.40;;
20725;SDS011;10524;48.132;8.518;2023-01-15T01:57:55;1.50;;;0.60;;
20725;SDS011;10524;48.132;8.518;2023-01-15T02:00:23;0.40;;;0.40;;
20725;SDS011;10524;48.132;8.518;2023-01-15T02:02:49;0.70;;;0.40;;
20725;SDS011;10524;48.132;8.518;2023-01-15T02:05:22;0.55;;;0.55;;
20725;SDS011;10524;48.132;8.518;2023-01-15T02:07:53;1.70;;;0.60;;
20725;SDS011;10524;48.132;8.518;2023-01-15T02:10:19;0.57;;;0.50;;
20725;SDS011;10524;48.132;8.518;2023-01-15T02:12:47;0.40;;;0.40;;
20725;SDS011;10524;48.132;8.518;2023-01-15T02:15:31;0.60;;;0.50;;
20725;SDS011;10524;48.132;8.518;2023-01-15T02:19:06;1.25;;;0.52;;
20725;SDS011;10524;48.132;8.518;2023-01-15T02:21:03;0.40;;;0.40;;
20725;SDS011;10524;48.132;8.518;2023-01-15T02:24:08;0.63;;;0.50;;
20725;SDS011;10524;48.132;8.518;2023-01-15T02:32:28;0.65;;;0.65;;
20725;SDS011;10524;48.132;8.518;2023-01-15T02:35:01;0.82;;;0.60;;
20725;SDS011;10524;48.132;8.518;2023-01-15T02:37:37;0.70;;;0.57;;
20725;SDS011;10524;48.132;8.518;2023-01-15T02:40:08;2.85;;;1.13;;
20725;SDS011;10524;48.132;8.518;2023-01-15T02:42:35;0.60;;;0.60;;
20725;SDS011;10524;48.132;8.518;2023-01-15T02:45:03;0.95;;;0.60;;
20725;SDS011;10524;48.132;8.518;2023-01-15T02:47:33;0.80;;;0.60;;
20725;SDS011;10524;48.132;8.518;2023-01-15T02:50:03;0.50;;;0.50;;
20725;SDS011;10524;48.132;8.518;2023-01-15T02:52:33;1.38;;;0.40;;
20725;SDS011;10524;48.132;8.518;2023-01-15T02:55:06;1.17;;;0.50;;
20725;SDS011;10524;48.132;8.518;2023-01-15T02:57:37;0.57;;;0.50;;
20725;SDS011;10524;48.132;8.518;2023-01-15T03:00:06;0.95;;;0.52;;
20725;SDS011;10524;48.132;8.518;2023-01-15T03:02:37;0.50;;;0.50;;
20725;SDS011;10524;48.132;8.518;2023-01-15T03:05:10;0.50;;;0.43;;
20725;SDS011;10524;48.132;8.518;2023-01-15T03:07:51;0.60;;;0.43;;
20725;SDS011;10524;48.132;8.518;2023-01-15T03:10:23;0.40;;;0.40;;
20725;SDS011;10524;48.132;8.518;2023-01-15T03:13:00;0.50;;;0.50;;
20725;SDS011;10524;48.132;8.518;2023-01-15T03:21:01;0.30;;;0.30;;
20725;SDS011;10524;48.132;8.518;2023-01-15T03:23:31;0.40;;;0.40;;
20725;SDS011;10524;48.132;8.518;2023-01-15T03:26:02;0.40;;;0.40;;
20725;SDS011;10524;48.132;8.518;2023-01-15T03:28:28;0.40;;;0.40;;
20725;SDS011;10524;48.132;8.518;2023-01-15T03:30:57;1.75;;;0.50;;
20725;SDS011;10524;48.132;8.518;2023-01-15T03:33:23;0.45;;;0.45;;
20725;SDS011;10524;48.132;8.518;2023-01-15T03:35:54;0.75;;;0.60;;
20725;SDS011;10524;48.132;8.518;2023-01-15T03:38:28;0.30;;;0.30;;
20725;SDS011;10524;48.132;8.518;2023-01-15T03:49:50;0.40;;;0.40;;
20725;SDS011;10524;48.132;8.518;2023-01-15T03:55:27;0.40;;;0.40;;
20725;SDS011;10524;48.132;8.518;2023-01-15T03:57:59;0.55;;;0.40;;
20725;SDS011;10524;48.132;8.518;2023-01-15T04:02:57;0.70;;;0.30;;
20725;SDS011;10524;48.132;8.518;2023-01-15T04:05:25;0.30;;;0.30;;
20725;SDS011;10524;48.132;8.518;2023-01-15T04:07:52;1.10;;;0.40;;
20725;SDS011;10524;48.132;8.518;2023-01-15T04:10:20;0.30;;;0.30;;
20725;SDS011;10524;48.132;8.518;2023-01-15T04:12:46;0.40;;;0.40;;
20725;SDS011;10524;48.132;8.518;2023-01-15T04:15:13;0.45;;;0.40;;
20725;SDS011;10524;48.132;8.518;2023-01-15T04:17:39;0.50;;;0.40;;
20725;SDS011;10524;48.132;8.518;2023-01-15T04:20:05;0.68;;;0.35;;
20725;SDS011;10524;48.132;8.518;2023-01-15T04:22:32;0.73;;;0.30;;
20725;SDS011;10524;48.132;8.518;2023-01-15T04:24:57;0.30;;;0.30;;
20725;SDS011;10524;48.132;8.518;2023-01-15T04:27:23;0.63;;;0.43;;
20725;SDS011;10524;48.132;8.518;2023-01-15T04:29:50;0.40;;;0.40;;
20725;SDS011;10524;48.132;8.518;2023-01-15T04:32:16;0.30;;;0.30;;
20725;SDS011;10524;48.132;8.518;2023-01-15T04:34:42;0.32;;;0.32;;
20725;SDS011;10524;48.132;8.518;2023-01-15T04:37:08;0.32;;;0.30;;
20725;SDS011;10524;48.132;8.518;2023-01-15T04:39:33;0.30;;;0.30;;
20725;SDS011;10524;48.132;8.518;2023-01-15T04:41:59;0.57;;;0.30;;
20725;SDS011;10524;48.132;8.518;2023-01-15T04:44:43;0.45;;;0.45;;
20725;SDS011;10524;48.132;8.518;2023-01-15T04:47:09;0.30;;;0.30;;
20725;SDS011;10524;48.132;8.518;2023-01-15T04:49:34;0.30;;;0.30;;
20725;SDS011;10524;48.132;8.518;2023-01-15T04:52:00;0.30;;;0.30;;
20725;SDS011;10524;48.132;8.518;2023-01-15T04:54:26;0.85;;;0.40;;
20725;SDS011;10524;48.132;8.518;2023-01-15T04:56:52;1.35;;;0.30;;
20725;SDS011;10524;48.132;8.518;2023-01-15T04:59:20;0.20;;;0.20;;
20725;SDS011;10524;48.132;8.518;2023-01-15T05:01:48;0.88;;;0.40;;
20725;SDS011;10524;48.132;8.518;2023-01-15T05:04:14;0.30;;;0.30;;
20725;SDS011;10524;48.132;8.518;2023-01-15T05:06:40;0.50;;;0.50;;
20725;SDS011;10524;48.132;8.518;2023-01-15T05:09:05;0.57;;;0.40;;
20725;SDS011;10524;48.132;8.518;2023-01-15T05:11:33;1.30;;;0.30;;
20725;SDS011;10524;48.132;8.518;2023-01-15T05:14:00;0.40;;;0.40;;
20725;SDS011;10524;48.132;8.518;2023-01-15T05:16:26;0.25;;;0.25;;
20725;SDS011;10524;48.132;8.518;2023-01-15T05:18:55;0.40;;;0.20;;
20725;SDS011;10524;48.132;8.518;2023-01-15T05:21:30;0.63;;;0.30;;
20725;SDS011;10524;48.132;8.518;2023-01-15T05:23:57;0.40;;;0.40;;
20725;SDS011;10524;48.132;8.518;2023-01-15T05:26:27;0.40;;;0.40;;
20725;SDS011;10524;48.132;8.518;2023-01-15T05:28:55;0.30;;;0.30;;
20725;SDS011;10524;48.132;8.518;2023-01-15T05:31:22;0.63;;;0.30;;
20725;SDS011;10524;48.132;8.518;2023-01-15T05:33:49;0.30;;;0.30;;
20725;SDS011;10524;48.132;8.518;2023-01-15T05:36:16;0.30;;;0.30;;
20725;SDS011;10524;48.132;8.518;2023-01-15T05:38:45;0.30;;;0.30;;
20725;SDS011;10524;48.132;8.518;2023-01-15T05:41:11;0.30;;;0.30;;
20725;SDS011;10524;48.132;8.518;2023-01-15T05:43:58;0.32;;;0.32;;
20725;SDS011;10524;48.132;8.518;2023-01-15T05:46:27;0.30;;;0.30;;
20725;SDS011;10524;48.132;8.518;2023-01-15T05:48:53;0.88;;;0.38;;
20725;SDS011;10524;48.132;8.518;2023-01-15T05:51:19;0.40;;;0.40;;
20725;SDS011;10524;48.132;8.518;2023-01-15T05:53:44;0.32;;;0.30;;
20725;SDS011;10524;48.132;8.518;2023-01-15T05:56:10;0.30;;;0.30;;
20725;SDS011;10524;48.132;8.518;2023-01-15T05:58:36;0.50;;;0.40;;
20725;SDS011;10524;48.132;8.518;2023-01-15T06:01:08;0.30;;;0.30;;
20725;SDS011;10524;48.132;8.518;2023-01-15T06:03:34;0.40;;;0.30;;
20725;SDS011;10524;48.132;8.518;2023-01-15T06:06:00;0.30;;;0.30;;
20725;SDS011;10524;48.132;8.518;2023-01-15T06:08:26;0.43;;;0.30;;
20725;SDS011;10524;48.132;8.518;2023-01-15T06:10:52;0.40;;;0.40;;
20725;SDS011;10524;48.132;8.518;2023-01-15T06:13:18;0.82;;;0.40;;
20725;SDS011;10524;48.132;8.518;2023-01-15T06:15:43;1.58;;;0.40;;
20725;SDS011;10524;48.132;8.518;2023-01-15T06:18:09;1.30;;;0.40;;
20725;SDS011;10524;48.132;8.518;2023-01-15T06:20:35;0.50;;;0.50;;
20725;SDS011;10524;48.132;8.518;2023-01-15T06:23:02;0.50;;;0.40;;
20725;SDS011;10524;48.132;8.518;2023-01-15T06:25:28;0.55;;;0.40;;
20725;SDS011;10524;48.132;8.518;2023-01-15T06:27:53;0.50;;;0.40;;
20725;SDS011;10524;48.132;8.518;2023-01-15T06:30:19;1.00;;;0.40;;
20725;SDS011;10524;48.132;8.518;2023-01-15T06:32:45;0.82;;;0.55;;
20725;SDS011;10524;48.132;8.518;2023-01-15T06:35:10;1.33;;;0.50;;
20725;SDS011;10524;48.132;8.518;2023-01-15T06:37:37;0.40;;;0.40;;
20725;SDS011;10524;48.132;8.518;2023-01-15T06:40:03;0.93;;;0.50;;
20725;SDS011;10524;48.132;8.518;2023-01-15T06:42:28;0.30;;;0.30;;
20725;SDS011;10524;48.132;8.518;2023-01-15T06:45:13;0.50;;;0.50;;
20725;SDS011;10524;48.132;8.518;2023-01-15T06:47:57;0.40;;;0.40;;
20725;SDS011;10524;48.132;8.518;2023-01-15T06:50:23;0.68;;;0.50;;
20725;SDS011;10524;48.132;8.518;2023-01-15T06:52:49;0.75;;;0.60;;
20725;SDS011;10524;48.132;8.518;2023-01-15T06:55:15;1.17;;;0.40;;
20725;SDS011;10524;48.132;8.518;2023-01-15T06:57:42;0.40;;;0.40;;
20725;SDS011;10524;48.132;8.518;2023-01-15T07:00:09;0.73;;;0.50;;
20725;SDS011;10524;48.132;8.518;2023-01-15T07:02:35;0.40;;;0.40;;
20725;SDS011;10524;48.132;8.518;2023-01-15T07:05:02;0.63;;;0.50;;
20725;SDS011;10524;48.132;8.518;2023-01-15T07:07:28;0.88;;;0.40;;
20725;SDS011;10524;48.132;8.518;2023-01-15T07:09:54;0.32;;;0.32;;
20725;SDS011;10524;48.132;8.518;2023-01-15T07:12:20;0.98;;;0.40;;
20725;SDS011;10524;48.132;8.518;2023-01-15T07:14:46;1.30;;;0.50;;
20725;SDS011;10524;48.132;8.518;2023-01-15T07:17:12;0.60;;;0.40;;
20725;SDS011;10524;48.132;8.518;2023-01-15T07:19:38;0.52;;;0.50;;
20725;SDS011;10524;48.132;8.518;2023-01-15T07:22:04;0.50;;;0.50;;
20725;SDS011;10524;48.132;8.518;2023-01-15T07:24:31;0.85;;;0.40;;
20725;SDS011;10524;48.132;8.518;2023-01-15T07:26:56;0.73;;;0.40;;
20725;SDS011;10524;48.132;8.518;2023-01-15T07:29:22;0.30;;;0.30;;
20725;SDS011;10524;48.132;8.518;2023-01-15T07:31:48;0.55;;;0.35;;
20725;SDS011;10524;48.132;8.518;2023-01-15T07:34:14;0.35;;;0.35;;
20725;SDS011;10524;48.132;8.518;2023-01-15T07:36:40;0.50;;;0.50;;
20725;SDS011;10524;48.132;8.518;2023-01-15T07:39:07;0.38;;;0.32;;
20725;SDS011;10524;48.132;8.518;2023-01-15T07:41:33;0.80;;;0.30;;
20725;SDS011;10524;48.132;8.518;2023-01-15T07:44:18;0.30;;;0.30;;
20725;SDS011;10524;48.132;8.518;2023-01-15T07:47:07;0.20;;;0.20;;
20725;SDS011;10524;48.132;8.518;2023-01-15T07:49:59;0.47;;;0.30;;
20725;SDS011;10524;48.132;8.518;2023-01-15T07:52:25;0.30;;;0.30;;
20725;SDS011;10524;48.132;8.518;2023-01-15T07:54:51;0.32;;;0.32;;
20725;SDS011;10524;48.132;8.518;2023-01-15T07:57:17;0.40;;;0.40;;
20725;SDS011;10524;48.132;8.518;2023-01-15T07:59:45;0.70;;;0.40;;
20725;SDS011;10524;48.132;8.518;2023-01-15T08:02:11;0.40;;;0.40;;
20725;SDS011;10524;48.132;8.518;2023-01-15T08:04:37;0.70;;;0.70;;
20725;SDS011;10524;48.132;8.518;2023-01-15T08:07:03;0.40;;;0.40;;
20725;SDS011;10524;48.132;8.518;2023-01-15T08:09:29;0.30;;;0.30;;
20725;SDS011;10524;48.132;8.518;2023-01-15T08:11:57;0.30;;;0.30;;
20725;SDS011;10524;48.132;8.518;2023-01-15T08:14:42;0.30;;;0.30;;
20725;SDS011;10524;48.132;8.518;2023-01-15T08:17:26;0.77;;;0.50;;
20725;SDS011;10524;48.132;8.518;2023-01-15T08:19:52;0.55;;;0.32;;
20725;SDS011;10524;48.132;8.518;2023-01-15T08:22:17;1.05;;;0.60;;
20725;SDS011;10524;48.132;8.518;2023-01-15T08:24:43;1.05;;;0.30;;
20725;SDS011;10524;48.132;8.518;2023-01-15T08:27:09;0.85;;;0.70;;
20725;SDS011;10524;48.132;8.518;2023-01-15T08:29:35;0.50;;;0.50;;
20725;SDS011;10524;48.132;8.518;2023-01-15T08:32:01;0.40;;;0.40;;
20725;SDS011;10524;48.132;8.518;2023-01-15T08:34:27;0.38;;;0.30;;
20725;SDS011;10524;48.132;8.518;2023-01-15T08:36:52;0.30;;;0.30;;
20725;SDS011;10524;48.132;8.518;2023-01-15T08:39:23;0.30;;;0.30;;
20725;SDS011;10524;48.132;8.518;2023-01-15T08:41:55;0.30;;;0.30;;
20725;SDS011;10524;48.132;8.518;2023-01-15T08:44:21;0.40;;;0.40;;
20725;SDS011;10524;48.132;8.518;2023-01-15T08:46:48;0.28;;;0.28;;
20725;SDS011;10524;48.132;8.518;2023-01-15T08:49:14;0.40;;;0.40;;
20725;SDS011;10524;48.132;8.518;2023-01-15T08:51:40;0.30;;;0.30;;
20725;SDS011;10524;48.132;8.518;2023-01-15T08:54:07;0.40;;;0.40;;
20725;SDS011;10524;48.132;8.518;2023-01-15T08:56:33;1.30;;;1.02;;
20725;SDS011;10524;48.132;8.518;2023-01-15T08:58:58;0.88;;;0.80;;
20725;SDS011;10524;48.132;8.518;2023-01-15T09:01:29;1.50;;;1.27;;
20725;SDS011;10524;48.132;8.518;2023-01-15T09:03:54;0.60;;;0.60;;
20725;SDS011;10524;48.132;8.518;2023-01-15T09:06:20;1.27;;;0.40;;
20725;SDS011;10524;48.132;8.518;2023-01-15T09:08:46;0.68;;;0.50;;
20725;SDS011;10524;48.132;8.518;2023-01-15T09:11:12;0.50;;;0.50;;
20725;SDS011;10524;48.132;8.518;2023-01-15T09:13:37;0.40;;;0.40;;
20725;SDS011;10524;48.132;8.518;2023-01-15T09:16:04;0.50;;;0.50;;
20725;SDS011;10524;48.132;8.518;2023-01-15T09:18:31;1.95;;;0.68;;
20725;SDS011;10524;48.132;8.518;2023-01-15T09:20:57;3.05;;;2.05;;
20725;SDS011;10524;48.132;8.518;2023-01-15T09:23:23;2.20;;;2.00;;
20725;SDS011;10524;48.132;8.518;2023-01-15T09:25:59;2.10;;;1.90;;
20725;SDS011;10524;48.132;8.518;2023-01-15T09:28:27;1.60;;;1.50;;
20725;SDS011;10524;48.132;8.518;2023-01-15T09:30:53;2.90;;;1.45;;
20725;SDS011;10524;48.132;8.518;2023-01-15T09:33:19;0.57;;;0.57;;
20725;SDS011;10524;48.132;8.518;2023-01-15T09:35:45;0.40;;;0.40;;
20725;SDS011;10524;48.132;8.518;2023-01-15T09:38:11;1.10;;;1.00;;
20725;SDS011;10524;48.132;8.518;2023-01-15T09:40:49;0.70;;;0.70;;
20725;SDS011;10524;48.132;8.518;2023-01-15T09:45:49;2.00;;;1.73;;
20725;SDS011;10524;48.132;8.518;2023-01-15T09:57:28;1.20;;;0.90;;
20725;SDS011;10524;48.132;8.518;2023-01-15T09:59:55;0.80;;;0.80;;
20725;SDS011;10524;48.132;8.518;2023-01-15T10:02:39;2.08;;;1.65;;
20725;SDS011;10524;48.132;8.518;2023-01-15T10:05:11;1.05;;;0.95;;
20725;SDS011;10524;48.132;8.518;2023-01-15T10:07:59;1.92;;;1.02;;
20725;SDS011;10524;48.132;8.518;2023-01-15T10:10:27;1.30;;;1.20;;
20725;SDS011;10524;48.132;8.518;2023-01-15T10:13:16;2.42;;;2.22;;
20725;SDS011;10524;48.132;8.518;2023-01-15T10:15:59;2.60;;;2.03;;
20725;SDS011;10524;48.132;8.518;2023-01-15T10:18:26;2.97;;;2.28;;
20725;SDS011;10524;48.132;8.518;2023-01-15T10:21:55;1.98;;;1.58;;
20725;SDS011;10524;48.132;8.518;2023-01-15T10:24:04;1.90;;;1.52;;
20725;SDS011;10524;48.132;8.518;2023-01-15T10:26:43;1.50;;;1.40;;
20725;SDS011;10524;48.132;8.518;2023-01-15T10:29:30;2.90;;;2.50;;
20725;SDS011;10524;48.132;8.518;2023-01-15T10:38:01;2.00;;;0.88;;
20725;SDS011;10524;48.132;8.518;2023-01-15T10:45:57;32.03;;;28.77;;
20725;SDS011;10524;48.132;8.518;2023-01-15T10:48:29;2.50;;;2.15;;
20725;SDS011;10524;48.132;8.518;2023-01-15T10:56:41;0.95;;;0.80;;
20725;SDS011;10524;48.132;8.518;2023-01-15T11:01:42;0.80;;;0.80;;
20725;SDS011;10524;48.132;8.518;2023-01-15T11:04:10;0.50;;;0.50;;
20725;SDS011;10524;48.132;8.518;2023-01-15T11:06:37;0.70;;;0.70;;
20725;SDS011;10524;48.132;8.518;2023-01-15T11:09:03;1.00;;;0.60;;
20725;SDS011;10524;48.132;8.518;2023-01-15T11:11:35;0.70;;;0.70;;
20725;SDS011;10524;48.132;8.518;2023-01-15T11:14:36;1.20;;;1.10;;
20725;SDS011;10524;48.132;8.518;2023-01-15T11:17:45;0.90;;;0.77;;
20725;SDS011;10524;48.132;8.518;2023-01-15T11:20:33;1.10;;;0.60;;
20725;SDS011;10524;48.132;8.518;2023-01-15T11:23:10;0.80;;;0.80;;
20725;SDS011;10524;48.132;8.518;2023-01-15T11:25:46;0.77;;;0.77;;
20725;SDS011;10524;48.132;8.518;2023-01-15T11:28:34;0.70;;;0.70;;
20725;SDS011;10524;48.132;8.518;2023-01-15T11:31:04;0.90;;;0.80;;
20725;SDS011;10524;48.132;8.518;2023-01-15T11:33:31;1.13;;;1.02;;
20725;SDS011;10524;48.132;8.518;2023-01-15T11:36:18;0.60;;;0.60;;
20725;SDS011;10524;48.132;8.518;2023-01-15T11:38:46;1.10;;;0.93;;
20725;SDS011;10524;48.132;8.518;2023-01-15T11:44:12;2.05;;;1.85;;
20725;SDS011;10524;48.132;8.518;2023-01-15T11:46:57;2.10;;;1.83;;
20725;SDS011;10524;48.132;8.518;2023-01-15T11:49:51;0.80;;;0.80;;
20725;SDS011;10524;48.132;8.518;2023-01-15T11:53:12;11.18;;;6.45;;
20725;SDS011;10524;48.132;8.518;2023-01-15T11:55:30;2.97;;;2.20;;
20725;SDS011;10524;48.132;8.518;2023-01-15T11:57:56;4.75;;;3.53;;
20725;SDS011;10524;48.132;8.518;2023-01-15T12:00:27;4.18;;;3.63;;
20725;SDS011;10524;48.132;8.518;2023-01-15T12:02:57;1.40;;;1.05;;
20725;SDS011;10524;48.132;8.518;2023-01-15T12:06:05;1.88;;;1.60;;
20725;SDS011;10524;48.132;8.518;2023-01-15T12:11:16;4.05;;;3.35;;
20725;SDS011;10524;48.132;8.518;2023-01-15T12:13:52;2.45;;;2.20;;
20725;SDS011;10524;48.132;8.518;2023-01-15T12:22:56;0.73;;;0.73;;
20725;SDS011;10524;48.132;8.518;2023-01-15T12:28:49;5.38;;;4.80;;
20725;SDS011;10524;48.132;8.518;2023-01-15T12:31:20;1.33;;;1.23;;
20725;SDS011;10524;48.132;8.518;2023-01-15T12:33:52;5.47;;;3.58;;
20725;SDS011;10524;48.132;8.518;2023-01-15T12:36:25;7.60;;;5.80;;
20725;SDS011;10524;48.132;8.518;2023-01-15T12:39:04;13.40;;;7.15;;
20725;SDS011;10524;48.132;8.518;2023-01-15T12:41:39;11.32;;;6.75;;
20725;SDS011;10524;48.132;8.518;2023-01-15T12:44:48;3.75;;;2.65;;
20725;SDS011;10524;48.132;8.518;2023-01-15T12:47:40;6.13;;;3.60;;
20725;SDS011;10524;48.132;8.518;2023-01-15T12:53:02;17.58;;;11.57;;
20725;SDS011;10524;48.132;8.518;2023-01-15T12:55:45;13.80;;;8.27;;
20725;SDS011;10524;48.132;8.518;2023-01-15T13:00:50;6.43;;;5.40;;
20725;SDS011;10524;48.132;8.518;2023-01-15T13:03:26;6.43;;;5.70;;
20725;SDS011;10524;48.132;8.518;2023-01-15T13:05:57;6.85;;;4.60;;
20725;SDS011;10524;48.132;8.518;2023-01-15T13:11:10;5.07;;;4.03;;
20725;SDS011;10524;48.132;8.518;2023-01-15T13:13:38;29.58;;;17.25;;
20725;SDS011;10524;48.132;8.518;2023-01-15T13:21:46;31.13;;;19.65;;
20725;SDS011;10524;48.132;8.518;2023-01-15T13:32:38;8.55;;;5.13;;
20725;SDS011;10524;48.132;8.518;2023-01-15T13:35:16;10.65;;;6.97;;
20725;SDS011;10524;48.132;8.518;2023-01-15T13:37:51;19.90;;;13.40;;
20725;SDS011;10524;48.132;8.518;2023-01-15T13:42:50;54.20;;;33.67;;
20725;SDS011;10524;48.132;8.518;2023-01-15T13:45:20;24.40;;;16.95;;
20725;SDS011;10524;48.132;8.518;2023-01-15T13:48:10;6.63;;;5.00;;
20725;SDS011;10524;48.132;8.518;2023-01-15T13:50:39;6.00;;;5.40;;
20725;SDS011;10524;48.132;8.518;2023-01-15T13:53:12;5.07;;;4.00;;
20725;SDS011;10524;48.132;8.518;2023-01-15T13:55:54;3.58;;;3.00;;
20725;SDS011;10524;48.132;8.518;2023-01-15T13:58:25;3.53;;;2.30;;
20725;SDS011;10524;48.132;8.518;2023-01-15T14:06:49;14.50;;;6.25;;
20725;SDS011;10524;48.132;8.518;2023-01-15T14:34:09;3.17;;;1.10;;
20725;SDS011;10524;48.132;8.518;2023-01-15T14:36:38;2.85;;;1.20;;
20725;SDS011;10524;48.132;8.518;2023-01-15T14:39:24;3.22;;;1.17;;
20725;SDS011;10524;48.132;8.518;2023-01-15T14:41:54;3.10;;;1.20;;
20725;SDS011;10524;48.132;8.518;2023-01-15T14:44:46;2.28;;;1.48;;
20725;SDS011;10524;48.132;8.518;2023-01-15T14:47:27;1.88;;;1.50;;
20725;SDS011;10524;48.132;8.518;2023-01-15T14:50:30;5.85;;;3.38;;
20725;SDS011;10524;48.132;8.518;2023-01-15T14:55:48;1.55;;;0.95;;
20725;SDS011;10524;48.132;8.518;2023-01-15T15:03:51;3.38;;;0.90;;
20725;SDS011;10524;48.132;8.518;2023-01-15T15:06:20;3.75;;;1.40;;
20725;SDS011;10524;48.132;8.518;2023-01-15T15:08:47;4.18;;;1.20;;
20725;SDS011;10524;48.132;8.518;2023-01-15T15:11:20;4.78;;;1.73;;
20725;SDS011;10524;48.132;8.518;2023-01-15T15:14:08;6.18;;;1.73;;
20725;SDS011;10524;48.132;8.518;2023-01-15T15:16:39;3.50;;;2.03;;
20725;SDS011;10524;48.132;8.518;2023-01-15T15:19:28;5.78;;;1.85;;
20725;SDS011;10524;48.132;8.518;2023-01-15T15:22:01;1.83;;;1.23;;
20725;SDS011;10524;48.132;8.518;2023-01-15T15:24:31;5.15;;;1.73;;
20725;SDS011;10524;48.132;8.518;2023-01-15T15:29:46;3.45;;;1.52;;
20725;SDS011;10524;48.132;8.518;2023-01-15T15:34:43;1.35;;;1.00;;
20725;SDS011;10524;48.132;8.518;2023-01-15T15:37:17;3.95;;;1.40;;
20725;SDS011;10524;48.132;8.518;2023-01-15T15:42:41;2.70;;;1.25;;
20725;SDS011;10524;48.132;8.518;2023-01-15T15:45:51;2.60;;;1.10;;
20725;SDS011;10524;48.132;8.518;2023-01-15T15:48:37;2.75;;;1.40;;
20725;SDS011;10524;48.132;8.518;2023-01-15T15:56:37;2.10;;;1.00;;
20725;SDS011;10524;48.132;8.518;2023-01-15T15:59:09;7.30;;;3.10;;
20725;SDS011;10524;48.132;8.518;2023-01-15T16:01:44;5.35;;;1.70;;
20725;SDS011;10524;48.132;8.518;2023-01-15T16:04:16;5.95;;;1.90;;
20725;SDS011;10524;48.132;8.518;2023-01-15T16:06:43;3.33;;;1.80;;
20725;SDS011;10524;48.132;8.518;2023-01-15T16:09:09;1.00;;;0.90;;
20725;SDS011;10524;48.132;8.518;2023-01-15T16:11:35;4.55;;;1.67;;
20725;SDS011;10524;48.132;8.518;2023-01-15T16:14:03;4.07;;;1.80;;
20725;SDS011;10524;48.132;8.518;2023-01-15T16:16:32;5.97;;;2.70;;
20725;SDS011;10524;48.132;8.518;2023-01-15T16:18:59;6.45;;;4.38;;
20725;SDS011;10524;48.132;8.518;2023-01-15T16:21:44;6.93;;;4.50;;
20725;SDS011;10524;48.132;8.518;2023-01-15T16:24:51;5.20;;;2.38;;
20725;SDS011;10524;48.132;8.518;2023-01-15T16:27:02;5.07;;;1.80;;
20725;SDS011;10524;48.132;8.518;2023-01-15T16:29:32;2.85;;;1.50;;
20725;SDS011;10524;48.132;8.518;2023-01-15T16:31:59;4.40;;;2.15;;
20725;SDS011;10524;48.132;8.518;2023-01-15T16:34:33;4.28;;;1.58;;
20725;SDS011;10524;48.132;8.518;2023-01-15T16:37:01;2.92;;;1.60;;
20725;SDS011;10524;48.132;8.518;2023-01-15T16:39:39;3.45;;;1.33;;
20725;SDS011;10524;48.132;8.518;2023-01-15T16:44:58;5.35;;;2.13;;
20725;SDS011;10524;48.132;8.518;2023-01-15T16:47:27;3.00;;;1.50;;
20725;SDS011;10524;48.132;8.518;2023-01-15T16:50:22;2.67;;;1.50;;
20725;SDS011;10524;48.132;8.518;2023-01-15T16:58:13;2.30;;;1.60;;
20725;SDS011;10524;48.132;8.518;2023-01-15T17:00:42;4.20;;;2.30;;
20725;SDS011;10524;48.132;8.518;2023-01-15T17:05:43;5.13;;;1.80;;
20725;SDS011;10524;48.132;8.518;2023-01-15T17:08:14;3.35;;;1.83;;
20725;SDS011;10524;48.132;8.518;2023-01-15T17:10:55;5.72;;;3.63;;
20725;SDS011;10524;48.132;8.518;2023-01-15T17:13:36;9.93;;;5.13;;
20725;SDS011;10524;48.132;8.518;2023-01-15T17:16:24;8.95;;;4.53;;
20725;SDS011;10524;48.132;8.518;2023-01-15T17:18:49;9.15;;;5.13;;
20725;SDS011;10524;48.132;8.518;2023-01-15T17:21:19;8.75;;;5.55;;
20725;SDS011;10524;48.132;8.518;2023-01-15T17:23:53;6.07;;;4.43;;
20725;SDS011;10524;48.132;8.518;2023-01-15T17:26:20;9.23;;;5.07;;
20725;SDS011;10524;48.132;8.518;2023-01-15T17:28:48;9.75;;;6.53;;
20725;SDS011;10524;48.132;8.518;2023-01-15T17:31:26;10.63;;;6.57;;
20725;SDS011;10524;48.132;8.518;2023-01-15T17:33:57;5.97;;;3.80;;
20725;SDS011;10524;48.132;8.518;2023-01-15T17:36:24;10.40;;;4.50;;
20725;SDS011;10524;48.132;8.518;2023-01-15T17:38:50;5.90;;;2.10;;
20725;SDS011;10524;48.132;8.518;2023-01-15T17:41:21;5.18;;;2.95;;
20725;SDS011;10524;48.132;8.518;2023-01-15T17:43:48;4.35;;;2.35;;
20725;SDS011;10524;48.132;8.518;2023-01-15T17:46:14;5.10;;;2.50;;
20725;SDS011;10524;48.132;8.518;2023-01-15T17:48:42;7.05;;;2.95;;
20725;SDS011;10524;48.132;8.518;2023-01-15T17:51:13;7.68;;;4.70;;
20725;SDS011;10524;48.132;8.518;2023-01-15T17:53:40;13.18;;;8.75;;
20725;SDS011;10524;48.132;8.518;2023-01-15T17:56:06;5.32;;;3.75;;